createdAt,value
2023-04-27T00:02:22.759Z,34.03
2023-04-27T00:04:51.864Z,32.25
2023-04-27T00:07:19.716Z,30.38
2023-04-27T00:09:47.574Z,32.67
2023-04-27T00:12:15.304Z,31.95
2023-04-27T00:14:42.910Z,34.08
2023-04-27T00:17:10.782Z,28.17
2023-04-27T00:19:39.742Z,37.05
2023-04-27T00:22:09.132Z,27.83
2023-04-27T00:24:37.425Z,30.98
2023-04-27T00:27:05.263Z,35.92
2023-04-27T00:29:33.286Z,26.88
2023-04-27T00:32:01.497Z,28.98
2023-04-27T00:34:29.370Z,32.72
2023-04-27T00:36:58.002Z,34.97
2023-04-27T00:39:25.841Z,36.50
2023-04-27T00:41:54.070Z,35.78
2023-04-27T00:46:56.697Z,35.97
2023-04-27T00:49:26.161Z,32.20
2023-04-27T00:51:53.973Z,36.03
2023-04-27T00:54:24.202Z,28.27
2023-04-27T00:56:53.410Z,29.50
2023-04-27T00:59:21.962Z,36.60
2023-04-27T01:01:50.471Z,39.47
2023-04-27T01:04:20.545Z,31.58
2023-04-27T01:06:48.744Z,42.38
2023-04-27T01:11:51.036Z,34.67
2023-04-27T01:14:19.075Z,31.20
2023-04-27T01:16:47.987Z,36.50
2023-04-27T01:19:15.894Z,33.85
2023-04-27T01:21:44.364Z,31.10
2023-04-27T01:26:40.086Z,32.40
2023-04-27T01:29:07.671Z,45.08
2023-04-27T01:31:35.619Z,32.75
2023-04-27T01:36:32.637Z,35.47
2023-04-27T01:39:02.744Z,35.35
2023-04-27T01:41:31.178Z,36.08
2023-04-27T01:43:58.910Z,29.35
2023-04-27T01:46:27.630Z,31.80
2023-04-27T01:48:55.846Z,30.25
2023-04-27T01:51:23.998Z,34.47
2023-04-27T01:53:52.245Z,38.22
2023-04-27T01:56:19.960Z,40.53
2023-04-27T01:58:49.643Z,37.00
2023-04-27T02:03:45.174Z,33.05
2023-04-27T02:06:13.832Z,37.63
2023-04-27T02:08:41.750Z,39.67
2023-04-27T02:11:10.248Z,33.00
2023-04-27T02:13:37.861Z,39.83
2023-04-27T02:16:08.063Z,47.85
2023-04-27T02:18:36.284Z,38.47
2023-04-27T02:21:10.429Z,45.50
2023-04-27T02:23:38.216Z,42.72
2023-04-27T02:26:06.191Z,39.38
2023-04-27T02:28:34.161Z,43.22
2023-04-27T02:31:02.309Z,39.80
2023-04-27T02:33:32.111Z,41.85
2023-04-27T02:35:59.878Z,43.08
2023-04-27T02:38:30.250Z,44.88
2023-04-27T02:40:58.863Z,43.92
2023-04-27T02:43:27.358Z,40.15
2023-04-27T02:45:55.196Z,37.35
2023-04-27T02:48:22.706Z,42.20
2023-04-27T02:50:50.498Z,40.22
2023-04-27T02:53:19.350Z,38.10
2023-04-27T02:55:48.441Z,41.88
2023-04-27T02:58:17.055Z,37.33
2023-04-27T03:00:45.561Z,42.10
2023-04-27T03:03:13.904Z,36.15
2023-04-27T03:10:37.108Z,40.47
2023-04-27T03:13:04.741Z,37.80
2023-04-27T03:15:32.972Z,37.97
2023-04-27T03:20:28.208Z,36.22
2023-04-27T03:22:55.933Z,41.78
2023-04-27T03:25:23.672Z,36.10
2023-04-27T03:27:51.509Z,38.03
2023-04-27T03:30:20.507Z,40.55
2023-04-27T03:32:48.191Z,41.20
2023-04-27T03:35:16.031Z,36.03
2023-04-27T03:37:45.956Z,40.47
2023-04-27T03:40:14.801Z,38.60
2023-04-27T03:42:42.691Z,40.28
2023-04-27T03:45:12.229Z,40.63
2023-04-27T03:47:40.297Z,39.58
2023-04-27T03:52:37.098Z,41.15
2023-04-27T03:55:07.087Z,37.60
2023-04-27T03:57:35.048Z,38.05
2023-04-27T04:00:05.445Z,39.28
2023-04-27T04:02:40.882Z,39.45
2023-04-27T04:08:59.699Z,36.70
2023-04-27T04:11:27.568Z,39.10
2023-04-27T04:13:58.426Z,44.47
2023-04-27T04:16:26.174Z,40.42
2023-04-27T04:18:54.375Z,38.42
2023-04-27T04:21:22.682Z,41.72
2023-04-27T04:23:51.491Z,44.88
2023-04-27T04:26:20.834Z,41.08
2023-04-27T04:28:49.154Z,39.85
2023-04-27T04:31:18.406Z,42.08
2023-04-27T04:33:46.227Z,40.42
2023-04-27T04:36:16.630Z,44.08
2023-04-27T04:41:11.770Z,39.35
2023-04-27T04:43:39.846Z,48.15
2023-04-27T04:46:07.775Z,37.30
2023-04-27T04:48:35.702Z,37.60
2023-04-27T04:51:06.509Z,39.63
2023-04-27T04:53:34.982Z,44.92
2023-04-27T04:56:13.380Z,45.67
2023-04-27T04:58:41.109Z,48.63
2023-04-27T05:01:08.748Z,41.50
2023-04-27T05:03:36.558Z,47.13
2023-04-27T05:06:04.491Z,47.13
2023-04-27T05:08:32.291Z,44.35
2023-04-27T05:11:00.284Z,44.33
2023-04-27T05:13:29.723Z,43.00
2023-04-27T05:15:57.620Z,41.17
2023-04-27T05:18:25.928Z,43.97
2023-04-27T05:23:21.424Z,49.50
2023-04-27T05:25:49.185Z,47.70
2023-04-27T05:28:16.814Z,48.15
2023-04-27T05:30:44.728Z,55.22
2023-04-27T05:33:12.724Z,47.42
2023-04-27T05:38:08.425Z,49.55
2023-04-27T05:43:05.597Z,43.22
2023-04-27T05:45:33.577Z,47.20
2023-04-27T05:48:01.404Z,52.05
2023-04-27T05:50:29.161Z,47.13
2023-04-27T05:52:56.762Z,47.58
2023-04-27T05:55:24.362Z,40.05
2023-04-27T05:58:00.739Z,47.78
2023-04-27T06:00:35.159Z,47.22
2023-04-27T06:03:02.949Z,43.17
2023-04-27T06:05:30.886Z,48.47
2023-04-27T06:07:58.612Z,44.42
2023-04-27T06:10:26.706Z,41.83
2023-04-27T06:15:21.938Z,41.05
2023-04-27T06:17:49.620Z,41.22
2023-04-27T06:20:17.386Z,43.30
2023-04-27T06:22:46.959Z,47.40
2023-04-27T06:25:14.683Z,50.55
2023-04-27T06:27:42.369Z,47.22
2023-04-27T06:30:10.462Z,42.42
2023-04-27T06:35:06.009Z,50.45
2023-04-27T06:40:01.122Z,43.55
2023-04-27T06:42:29.392Z,45.33
2023-04-27T06:47:24.753Z,41.03
2023-04-27T06:49:52.523Z,42.28
2023-04-27T06:52:20.514Z,41.08
2023-04-27T06:54:48.227Z,44.05
2023-04-27T06:57:16.318Z,41.58
2023-04-27T06:59:44.316Z,39.45
2023-04-27T07:02:11.941Z,42.47
2023-04-27T07:04:39.855Z,42.00
2023-04-27T07:09:34.977Z,40.05
2023-04-27T07:12:03.428Z,41.92
2023-04-27T07:14:31.681Z,40.75
2023-04-27T07:19:26.923Z,32.67
2023-04-27T07:21:54.792Z,44.30
2023-04-27T07:24:22.346Z,41.05
2023-04-27T07:26:49.931Z,38.22
2023-04-27T07:29:26.496Z,39.67
2023-04-27T07:31:56.012Z,34.28
2023-04-27T07:34:24.240Z,40.53
2023-04-27T07:36:54.640Z,38.92
2023-04-27T07:39:23.026Z,39.63
2023-04-27T07:44:19.073Z,33.95
2023-04-27T07:46:49.114Z,36.35
2023-04-27T07:49:17.038Z,37.88
2023-04-27T07:54:12.373Z,35.63
2023-04-27T07:59:11.749Z,35.70
2023-04-27T08:01:39.656Z,36.53
2023-04-27T08:04:07.809Z,47.85
2023-04-27T08:06:36.222Z,41.40
2023-04-27T08:09:05.146Z,37.05
2023-04-27T08:11:33.007Z,33.60
2023-04-27T08:14:00.568Z,41.47
2023-04-27T08:16:28.379Z,39.92
2023-04-27T08:18:56.535Z,38.15
2023-04-27T08:21:25.420Z,41.70
2023-04-27T08:23:53.183Z,41.63
2023-04-27T08:26:20.857Z,38.83
2023-04-27T08:28:49.462Z,34.53
2023-04-27T08:31:17.120Z,31.85
2023-04-27T08:33:45.226Z,33.97
2023-04-27T08:38:40.508Z,30.58
2023-04-27T08:43:42.264Z,38.13
2023-04-27T08:46:09.940Z,37.35
2023-04-27T08:48:37.536Z,39.05
2023-04-27T08:51:10.720Z,39.08
2023-04-27T08:53:54.729Z,36.60
2023-04-27T08:56:28.032Z,36.85
2023-04-27T08:58:57.402Z,38.08
2023-04-27T09:01:26.407Z,41.22
2023-04-27T09:03:59.257Z,33.03
2023-04-27T09:06:34.976Z,40.50
2023-04-27T09:09:04.018Z,37.72
2023-04-27T09:11:38.092Z,38.42
2023-04-27T09:14:20.729Z,37.92
2023-04-27T09:16:59.635Z,40.97
2023-04-27T09:19:29.317Z,33.25
2023-04-27T09:22:08.959Z,37.47
2023-04-27T09:24:37.855Z,39.67
2023-04-27T09:27:07.321Z,42.08
2023-04-27T09:29:36.115Z,39.75
2023-04-27T09:32:17.895Z,30.73
2023-04-27T09:34:46.442Z,34.55
2023-04-27T09:37:18.667Z,34.67
2023-04-27T09:39:46.861Z,39.38
2023-04-27T09:42:16.012Z,36.75
2023-04-27T09:44:43.805Z,41.05
2023-04-27T09:47:13.572Z,40.08
2023-04-27T09:49:41.348Z,34.83
2023-04-27T09:52:10.500Z,38.42
2023-04-27T09:54:38.934Z,43.95
2023-04-27T09:57:38.895Z,37.65
2023-04-27T10:00:37.274Z,39.78
2023-04-27T10:03:34.536Z,40.03
2023-04-27T10:06:39.387Z,37.28
2023-04-27T10:09:08.827Z,43.90
2023-04-27T10:11:41.431Z,38.22
2023-04-27T10:14:11.255Z,34.08
2023-04-27T10:16:52.091Z,38.60
2023-04-27T10:19:21.506Z,38.58
2023-04-27T10:21:57.623Z,36.40
2023-04-27T10:24:52.358Z,39.45
2023-04-27T10:27:22.656Z,32.40
2023-04-27T10:29:51.370Z,30.50
2023-04-27T10:32:25.121Z,35.30
2023-04-27T10:35:09.487Z,33.60
2023-04-27T10:37:43.818Z,37.92
2023-04-27T10:40:19.439Z,32.72
2023-04-27T10:42:49.724Z,35.70
2023-04-27T10:45:31.173Z,35.72
2023-04-27T10:48:02.524Z,35.92
2023-04-27T10:50:31.518Z,35.65
2023-04-27T10:53:07.135Z,37.83
2023-04-27T10:55:36.684Z,29.65
2023-04-27T10:58:04.725Z,30.63
2023-04-27T11:00:38.831Z,30.58
2023-04-27T11:03:19.974Z,39.45
2023-04-27T11:05:49.689Z,31.30
2023-04-27T11:08:19.330Z,34.08
2023-04-27T11:10:52.457Z,30.63
2023-04-27T11:13:24.842Z,32.53
2023-04-27T11:15:55.567Z,31.05
2023-04-27T11:18:29.372Z,34.53
2023-04-27T11:21:18.421Z,33.15
2023-04-27T11:23:46.310Z,30.35
2023-04-27T11:26:15.284Z,33.45
2023-04-27T11:29:00.203Z,31.80
2023-04-27T11:31:38.898Z,31.63
2023-04-27T11:34:16.295Z,32.08
2023-04-27T11:36:44.427Z,33.45
2023-04-27T11:41:50.096Z,28.95
2023-04-27T11:44:17.765Z,36.45
2023-04-27T11:46:47.646Z,21.63
2023-04-27T11:49:16.099Z,30.65
2023-04-27T11:51:48.715Z,38.15
2023-04-27T11:54:16.833Z,32.45
2023-04-27T11:56:45.244Z,33.42
2023-04-27T11:59:23.339Z,28.83
2023-04-27T12:01:51.937Z,30.10
2023-04-27T12:04:20.345Z,31.55
2023-04-27T12:06:48.749Z,32.22
2023-04-27T12:09:17.444Z,30.05
2023-04-27T12:11:46.651Z,36.35
2023-04-27T12:14:14.444Z,30.58
2023-04-27T12:21:38.815Z,29.60
2023-04-27T12:24:07.594Z,33.35
2023-04-27T12:26:35.618Z,34.13
2023-04-27T12:31:32.408Z,37.13
2023-04-27T12:34:00.239Z,36.30
2023-04-27T12:36:28.787Z,36.92
2023-04-27T12:39:12.337Z,32.53
2023-04-27T12:41:39.976Z,39.17
2023-04-27T12:44:07.568Z,38.28
2023-04-27T12:46:35.590Z,33.25
2023-04-27T12:49:03.405Z,37.65
2023-04-27T12:51:31.089Z,36.05
2023-04-27T12:54:00.796Z,32.80
2023-04-27T12:56:29.378Z,32.95
2023-04-27T12:58:57.357Z,36.00
2023-04-27T13:01:27.730Z,31.95
2023-04-27T13:04:00.266Z,31.05
2023-04-27T13:06:29.525Z,33.83
2023-04-27T13:08:57.275Z,33.60
2023-04-27T13:11:25.589Z,32.97
2023-04-27T13:13:53.338Z,30.70
2023-04-27T13:16:22.884Z,32.78
2023-04-27T13:18:52.343Z,32.70
2023-04-27T13:21:22.219Z,34.75
2023-04-27T13:23:51.309Z,37.50
2023-04-27T13:26:19.135Z,33.17
2023-04-27T13:28:46.772Z,33.85
2023-04-27T13:31:14.704Z,29.98
2023-04-27T13:33:44.015Z,35.15
2023-04-27T13:36:13.167Z,27.77
2023-04-27T13:38:41.555Z,28.88
2023-04-27T13:41:09.675Z,28.50
2023-04-27T13:43:37.380Z,31.35
2023-04-27T13:46:05.044Z,31.42
2023-04-27T13:48:32.658Z,28.92
2023-04-27T13:51:00.651Z,29.48
2023-04-27T13:55:57.581Z,31.92
2023-04-27T13:58:27.811Z,33.00
2023-04-27T14:00:56.363Z,36.00
2023-04-27T14:03:24.772Z,30.88
2023-04-27T14:05:52.484Z,38.45
2023-04-27T14:08:21.242Z,34.47
2023-04-27T14:10:49.978Z,36.28
2023-04-27T14:13:18.439Z,36.08
2023-04-27T14:15:46.737Z,37.38
2023-04-27T14:18:14.516Z,33.40
2023-04-27T14:23:11.736Z,33.17
2023-04-27T14:25:39.468Z,30.90
2023-04-27T14:28:07.823Z,32.55
2023-04-27T14:30:36.760Z,28.25
2023-04-27T14:33:04.549Z,32.60
2023-04-27T14:35:35.063Z,32.72
2023-04-27T14:38:03.631Z,35.30
2023-04-27T14:40:32.038Z,37.05
2023-04-27T14:42:59.911Z,32.33
2023-04-27T14:45:36.646Z,34.80
2023-04-27T14:48:12.005Z,32.40
2023-04-27T14:50:39.888Z,36.03
2023-04-27T14:53:07.728Z,33.17
2023-04-27T14:55:35.370Z,33.47
2023-04-27T14:58:03.415Z,32.25
2023-04-27T15:00:31.607Z,31.33
2023-04-27T15:05:26.874Z,34.15
2023-04-27T15:07:54.648Z,34.25
2023-04-27T15:10:22.782Z,35.45
2023-04-27T15:12:50.652Z,32.30
2023-04-27T15:15:19.273Z,33.10
2023-04-27T15:17:47.708Z,29.20
2023-04-27T15:20:18.344Z,31.42
2023-04-27T15:22:47.586Z,34.60
2023-04-27T15:25:19.440Z,34.45
2023-04-27T15:27:49.675Z,37.85
2023-04-27T15:30:19.001Z,32.47
2023-04-27T15:32:49.951Z,32.08
2023-04-27T15:35:17.756Z,33.85
2023-04-27T15:37:46.671Z,36.13
2023-04-27T15:40:17.202Z,32.55
2023-04-27T15:45:17.056Z,34.35
2023-04-27T15:47:51.032Z,31.60
2023-04-27T15:50:20.339Z,32.83
2023-04-27T15:52:48.235Z,33.35
2023-04-27T15:55:17.129Z,32.50
2023-04-27T15:57:45.410Z,29.88
2023-04-27T16:00:17.549Z,34.03
2023-04-27T16:02:46.903Z,37.50
2023-04-27T16:05:15.354Z,35.80
2023-04-27T16:07:46.924Z,36.58
2023-04-27T16:10:14.658Z,39.78
2023-04-27T16:12:42.300Z,38.38
2023-04-27T16:15:11.555Z,36.70
2023-04-27T16:17:39.845Z,34.90
2023-04-27T16:20:08.642Z,39.72
2023-04-27T16:22:37.331Z,37.60
2023-04-27T16:25:12.992Z,35.35
2023-04-27T16:27:40.881Z,41.90
2023-04-27T16:32:37.501Z,36.72
2023-04-27T16:35:06.069Z,45.78
2023-04-27T16:37:33.992Z,42.80
2023-04-27T16:40:06.869Z,43.45
2023-04-27T16:42:34.776Z,43.50
2023-04-27T16:45:02.698Z,37.80
2023-04-27T16:47:31.645Z,44.55
2023-04-27T16:49:59.533Z,43.85
2023-04-27T16:52:28.579Z,54.35
2023-04-27T16:54:56.309Z,41.17
2023-04-27T16:57:24.186Z,40.22
2023-04-27T16:59:52.637Z,41.00
2023-04-27T17:02:24.987Z,44.08
2023-04-27T17:04:55.210Z,44.78
2023-04-27T17:07:23.543Z,48.13
2023-04-27T17:09:52.216Z,49.42
2023-04-27T17:12:20.863Z,42.78
2023-04-27T17:14:49.022Z,47.97
2023-04-27T17:17:17.443Z,44.20
2023-04-27T17:19:46.144Z,39.25
2023-04-27T17:22:15.368Z,51.75
2023-04-27T17:24:43.375Z,44.22
2023-04-27T17:27:11.778Z,44.28
2023-04-27T17:29:39.854Z,44.35
2023-04-27T17:32:08.705Z,39.55
2023-04-27T17:34:39.004Z,42.00
2023-04-27T17:37:10.215Z,32.90
2023-04-27T17:39:45.857Z,38.33
2023-04-27T17:42:14.055Z,46.17
2023-04-27T17:44:42.588Z,33.03
2023-04-27T17:47:11.246Z,40.17
2023-04-27T17:49:40.204Z,39.25
2023-04-27T17:52:08.526Z,45.78
2023-04-27T17:54:36.955Z,40.13
2023-04-27T17:57:04.888Z,39.35
2023-04-27T17:59:38.116Z,43.17
2023-04-27T18:02:07.350Z,39.92
2023-04-27T18:04:35.415Z,43.03
2023-04-27T18:07:04.392Z,39.15
2023-04-27T18:09:33.172Z,41.42
2023-04-27T18:12:02.445Z,36.17
2023-04-27T18:14:30.874Z,36.28
2023-04-27T18:16:58.672Z,40.58
2023-04-27T18:19:27.007Z,41.10
2023-04-27T18:24:22.520Z,34.10
2023-04-27T18:26:50.232Z,44.42
2023-04-27T18:29:17.915Z,40.17
2023-04-27T18:31:47.639Z,47.05
2023-04-27T18:34:15.366Z,46.25
2023-04-27T18:36:43.636Z,42.10
2023-04-27T18:39:11.319Z,40.35
2023-04-27T18:41:39.012Z,36.13
2023-04-27T18:44:06.991Z,42.15
2023-04-27T18:46:34.761Z,39.03
2023-04-27T18:49:02.744Z,45.67
2023-04-27T18:51:32.427Z,48.88
2023-04-27T18:54:00.407Z,42.75
2023-04-27T18:58:56.244Z,48.85
2023-04-27T19:03:53.300Z,44.40
2023-04-27T19:06:21.607Z,48.20
2023-04-27T19:11:23.078Z,50.08
2023-04-27T19:13:51.324Z,51.42
2023-04-27T19:18:46.577Z,50.45
2023-04-27T19:21:14.258Z,52.80
2023-04-27T19:23:42.328Z,60.03
2023-04-27T19:26:13.650Z,56.80
2023-04-27T19:28:42.092Z,51.28
2023-04-27T19:31:10.527Z,63.60
2023-04-27T19:33:46.639Z,54.35
2023-04-27T19:36:15.072Z,59.33
2023-04-27T19:38:43.927Z,62.42
2023-04-27T19:41:14.312Z,57.47
2023-04-27T19:43:42.694Z,65.85
2023-04-27T19:46:10.497Z,60.97
2023-04-27T19:48:38.366Z,65.93
2023-04-27T19:51:10.689Z,63.75
2023-04-27T19:53:39.075Z,61.78
2023-04-27T19:56:07.500Z,63.72
2023-04-27T19:58:36.041Z,68.15
2023-04-27T20:01:06.618Z,73.70
2023-04-27T20:03:35.809Z,70.80
2023-04-27T20:06:04.374Z,69.53
2023-04-27T20:08:34.194Z,73.90
2023-04-27T20:11:01.758Z,67.15
2023-04-27T20:13:29.396Z,64.82
2023-04-27T20:15:58.565Z,68.25
2023-04-27T20:18:28.598Z,73.20
2023-04-27T20:21:01.985Z,63.92
2023-04-27T20:23:30.201Z,65.90
2023-04-27T20:25:57.824Z,62.72
2023-04-27T20:28:25.863Z,63.92
2023-04-27T20:30:54.691Z,163.80
2023-04-27T20:33:23.395Z,67.47
2023-04-27T20:35:55.581Z,63.20
2023-04-27T20:38:25.461Z,109.65
2023-04-27T20:40:53.472Z,65.25
2023-04-27T20:43:24.813Z,69.28
2023-04-27T20:45:53.568Z,77.32
2023-04-27T20:48:21.540Z,129.02
2023-04-27T20:50:50.408Z,74.93
2023-04-27T20:53:18.274Z,70.85
2023-04-27T20:55:46.671Z,70.80
2023-04-27T20:58:17.905Z,68.07
2023-04-27T21:00:45.871Z,73.45
2023-04-27T21:05:44.745Z,75.18
2023-04-27T21:08:13.101Z,68.90
2023-04-27T21:10:41.197Z,82.15
2023-04-27T21:15:36.135Z,73.03
2023-04-27T21:18:07.876Z,69.22
2023-04-27T21:20:37.477Z,73.28
2023-04-27T21:23:05.041Z,71.65
2023-04-27T21:25:32.642Z,69.97
2023-04-27T21:28:01.118Z,63.53
2023-04-27T21:30:31.388Z,63.75
2023-04-27T21:32:59.352Z,62.42
2023-04-27T21:35:27.578Z,60.22
2023-04-27T21:40:22.685Z,59.15
2023-04-27T21:42:51.387Z,53.08
2023-04-27T21:45:19.753Z,54.08
2023-04-27T21:47:47.857Z,54.67
2023-04-27T21:52:44.991Z,49.17
2023-04-27T21:55:12.672Z,44.15
2023-04-27T21:57:40.396Z,37.47
2023-04-27T22:00:13.654Z,47.55
2023-04-27T22:02:48.637Z,47.42
2023-04-27T22:05:16.536Z,50.92
2023-04-27T22:07:46.103Z,35.22
2023-04-27T22:10:14.106Z,46.45
2023-04-27T22:12:41.845Z,47.22
2023-04-27T22:15:13.512Z,42.65
2023-04-27T22:17:41.408Z,47.65
2023-04-27T22:20:13.086Z,48.28
2023-04-27T22:22:41.166Z,48.83
2023-04-27T22:25:11.083Z,41.50
2023-04-27T22:27:45.016Z,45.50
2023-04-27T22:30:14.124Z,45.28
2023-04-27T22:32:42.506Z,42.72
2023-04-27T22:35:24.707Z,47.53
2023-04-27T22:37:56.061Z,45.95
2023-04-27T22:40:25.148Z,54.15
2023-04-27T22:42:53.868Z,48.03
2023-04-27T22:45:23.183Z,50.95
2023-04-27T22:47:51.322Z,49.97
2023-04-27T22:50:19.077Z,51.38
2023-04-27T22:52:46.882Z,48.33
2023-04-27T22:57:44.919Z,56.90
2023-04-27T23:00:13.377Z,51.78
2023-04-27T23:02:41.537Z,50.13
2023-04-27T23:05:11.244Z,43.63
2023-04-27T23:07:41.053Z,46.63
2023-04-27T23:10:09.624Z,46.22
2023-04-27T23:12:38.912Z,46.45
2023-04-27T23:15:07.930Z,44.58
2023-04-27T23:17:35.949Z,44.38
2023-04-27T23:20:26.612Z,39.83
2023-04-27T23:22:56.766Z,42.03
2023-04-27T23:25:24.726Z,41.22
2023-04-27T23:27:52.900Z,43.80
2023-04-27T23:30:22.083Z,40.30
2023-04-27T23:32:49.827Z,39.35
2023-04-27T23:35:17.932Z,33.42
2023-04-27T23:37:45.509Z,37.10
2023-04-27T23:40:13.455Z,34.35
2023-04-27T23:42:41.169Z,38.47
2023-04-27T23:45:09.112Z,35.13
2023-04-27T23:47:37.715Z,33.53
2023-04-27T23:50:06.268Z,33.60
2023-04-27T23:52:34.231Z,33.05
2023-04-27T23:55:01.885Z,33.40
2023-04-27T23:57:30.564Z,34.35
2023-04-27T23:59:58.157Z,37.88
